Welcome to Northern Hawkes Bay. New Zealand.
PWS Header
      nz Flag



Hit Counter


W3C Valid W3C Valid logo


    Wairoa

Select any of the Stations below to visit their websites.










Historic Data from Weather Underground
Select the location of interest below. Wairoa is the default. Please have patience, this Data is slow to load in.
Northern Hawkes Bay Historical Data
Daily Summary for October 5, 2017 Units:  Metric    English   Both
« Previous Day
Next Day »
Daily Weekly Monthly Yearly Custom
  High: Low: Average:
Temperature: 15.0 °C 7.6 °C 11.6 °C
Dew Point: 12.2 °C 7.2 °C 9 °C
Humidity: 99% 67% 85%
Wind Speed: 24.5km/h 0.0km/h 8.9km/h
Wind Gust: 42.8km/h - -
Wind- - WSW
Pressure: 1025.3 hPa 1014.8 hPa -
Precipitation: 0.0 mm    
Historical Graphs
 
 
Tabular Data for October 5, 2017
Time Temperature Dew Point Pressure Wind Wind Speed Wind Gust Humidity Rainfall Rate (Hourly) solar
00:00 11.0 °C 8.4 °C 1015.1 hPa Calm     84% 0.0 mm 0 W/m2
00:05 10.9 °C 8.7 °C 1015.1 hPa Calm     86% 0.0 mm 0 W/m2
00:10 10.7 °C 8.4 °C 1015.5 hPa Calm     86% 0.0 mm 0 W/m2
00:15 10.6 °C 8.6 °C 1015.5 hPa Calm     87% 0.0 mm 0 W/m2
00:20 10.7 °C 8.8 °C 1015.5 hPa Calm     88% 0.0 mm 0 W/m2
00:25 10.9 °C 9.2 °C 1015.5 hPa Calm     89% 0.0 mm 0 W/m2
00:30 10.6 °C 8.9 °C 1015.5 hPa Calm   1.1 km/h 89% 0.0 mm 0 W/m2
00:35 10.4 °C 8.8 °C 1015.5 hPa Calm   1.1 km/h 90% 0.0 mm 0 W/m2
00:40 10.3 °C 8.7 °C 1015.5 hPa Calm     90% 0.0 mm 0 W/m2
00:45 10.2 °C 8.8 °C 1015.5 hPa Calm     91% 0.0 mm 0 W/m2
00:50 10.1 °C 8.7 °C 1015.5 hPa Calm     91% 0.0 mm 0 W/m2
00:55 9.9 °C 8.7 °C 1015.5 hPa Calm     92% 0.0 mm 0 W/m2
01:13 9.8 °C 8.9 °C 1015.5 hPa WNW 1.1 km/h 5.0 km/h 94% 0.0 mm 0 W/m2
01:18 10.0 °C 8.9 °C 1015.5 hPa NW 2.6 km/h 5.0 km/h 93% 0.0 mm 0 W/m2
01:23 10.2 °C 9.3 °C 1015.5 hPa NW 3.5 km/h 5.0 km/h 94% 0.0 mm 0 W/m2
01:28 10.2 °C 9.1 °C 1015.5 hPa NW 2.6 km/h 5.0 km/h 93% 0.0 mm 0 W/m2
01:33 10.1 °C 9.0 °C 1015.5 hPa NW 3.5 km/h 5.0 km/h 93% 0.0 mm 0 W/m2
01:38 10.1 °C 9.0 °C 1015.5 hPa NW 2.6 km/h 5.0 km/h 93% 0.0 mm 0 W/m2
01:43 10.0 °C 8.9 °C 1015.5 hPa NW 3.5 km/h 6.1 km/h 93% 0.0 mm 0 W/m2
01:48 9.8 °C 8.9 °C 1015.5 hPa NW 3.5 km/h 6.1 km/h 94% 0.0 mm 0 W/m2
01:53 9.7 °C 8.8 °C 1015.5 hPa NW 2.6 km/h 6.1 km/h 94% 0.0 mm 0 W/m2
01:58 9.7 °C 8.8 °C 1015.5 hPa NW 3.5 km/h 6.1 km/h 94% 0.0 mm 0 W/m2
02:03 9.6 °C 8.7 °C 1015.5 hPa NW 6.1 km/h 8.7 km/h 94% 0.0 mm 0 W/m2
02:08 9.7 °C 8.9 °C 1015.5 hPa NW 5.0 km/h 8.7 km/h 95% 0.0 mm 0 W/m2
02:13 9.6 °C 8.8 °C 1015.5 hPa NNW 5.0 km/h 7.2 km/h 95% 0.0 mm 0 W/m2
02:18 9.4 °C 8.7 °C 1015.5 hPa NW 3.5 km/h 7.2 km/h 95% 0.0 mm 0 W/m2
02:23 9.4 °C 8.7 °C 1015.5 hPa NW 5.0 km/h 8.7 km/h 95% 0.0 mm 0 W/m2
02:28 9.3 °C 8.6 °C 1015.1 hPa NW 3.5 km/h 8.7 km/h 95% 0.0 mm 0 W/m2
02:33 9.1 °C 8.3 °C 1015.5 hPa NW 1.1 km/h 7.2 km/h 95% 0.0 mm 0 W/m2
02:38 9.0 °C 8.2 °C 1015.5 hPa WNW 2.6 km/h 6.1 km/h 95% 0.0 mm 0 W/m2
02:43 9.1 °C 8.3 °C 1015.1 hPa NW 3.5 km/h 7.2 km/h 95% 0.0 mm 0 W/m2
02:48 9.0 °C 8.4 °C 1015.1 hPa NW 5.0 km/h 8.7 km/h 96% 0.0 mm 0 W/m2
02:53 9.0 °C 8.4 °C 1015.5 hPa NW 2.6 km/h 8.7 km/h 96% 0.0 mm 0 W/m2
03:03 8.9 °C 8.4 °C 1015.1 hPa NNW 3.5 km/h 7.2 km/h 97% 0.0 mm 0 W/m2
03:08 8.8 °C 8.3 °C 1015.1 hPa NW 5.0 km/h 8.7 km/h 97% 0.0 mm 0 W/m2
03:13 8.7 °C 8.3 °C 1015.1 hPa WNW 5.0 km/h 8.7 km/h 97% 0.0 mm 0 W/m2
03:18 8.7 °C 8.3 °C 1014.8 hPa NW 5.0 km/h 7.2 km/h 97% 0.0 mm 0 W/m2
03:23 8.7 °C 8.3 °C 1014.8 hPa NW 5.0 km/h 7.2 km/h 97% 0.0 mm 0 W/m2
03:28 8.7 °C 8.3 °C 1014.8 hPa NW 5.0 km/h 8.7 km/h 97% 0.0 mm 0 W/m2
03:33 8.7 °C 8.3 °C 1014.8 hPa NW 1.1 km/h 8.7 km/h 97% 0.0 mm 0 W/m2
03:38 8.7 °C 8.3 °C 1014.8 hPa NW 2.6 km/h 6.1 km/h 97% 0.0 mm 0 W/m2
03:43 8.7 °C 8.3 °C 1014.8 hPa NW 3.5 km/h 6.1 km/h 97% 0.0 mm 0 W/m2
03:48 8.5 °C 7.9 °C 1014.8 hPa NW 3.5 km/h 7.2 km/h 96% 0.0 mm 0 W/m2
03:53 8.5 °C 7.9 °C 1014.8 hPa NW 3.5 km/h 7.2 km/h 96% 0.0 mm 0 W/m2
03:58 8.5 °C 7.9 °C 1014.8 hPa NW 3.5 km/h 7.2 km/h 96% 0.0 mm 0 W/m2
04:03 8.5 °C 8.1 °C 1014.8 hPa NW 5.0 km/h 7.2 km/h 97% 0.0 mm 0 W/m2
04:08 8.5 °C 8.1 °C 1014.8 hPa NW 3.5 km/h 7.2 km/h 97% 0.0 mm 0 W/m2
04:13 8.5 °C 8.1 °C 1014.8 hPa NW 5.0 km/h 6.1 km/h 97% 0.0 mm 0 W/m2
04:18 8.5 °C 8.1 °C 1015.1 hPa NW 5.0 km/h 7.2 km/h 97% 0.0 mm 0 W/m2
04:23 8.5 °C 8.1 °C 1014.8 hPa NW 6.1 km/h 9.7 km/h 97% 0.0 mm 0 W/m2
04:28 8.5 °C 7.9 °C 1015.1 hPa NW 6.1 km/h 9.7 km/h 96% 0.0 mm 0 W/m2
04:33 8.5 °C 7.9 °C 1015.1 hPa NW 5.0 km/h 11.1 km/h 96% 0.0 mm 0 W/m2
04:38 8.5 °C 7.9 °C 1015.1 hPa NW 5.0 km/h 11.1 km/h 96% 0.0 mm 0 W/m2
04:43 8.5 °C 7.9 °C 1015.1 hPa NW 6.1 km/h 8.7 km/h 96% 0.0 mm 0 W/m2
04:48 8.4 °C 7.9 °C 1015.1 hPa NW 2.6 km/h 8.7 km/h 97% 0.0 mm 0 W/m2
04:53 8.3 °C 7.8 °C 1015.1 hPa NW 6.1 km/h 8.7 km/h 97% 0.0 mm 0 W/m2
04:58 8.3 °C 7.8 °C 1015.1 hPa NW 3.5 km/h 8.7 km/h 97% 0.0 mm 0 W/m2
05:03 8.2 °C 7.8 °C 1015.1 hPa NW 3.5 km/h 9.7 km/h 97% 0.0 mm 0 W/m2
05:08 8.1 °C 7.7 °C 1015.5 hPa NW 5.0 km/h 9.7 km/h 97% 0.0 mm 0 W/m2
05:13 8.1 °C 7.7 °C 1015.5 hPa NW 3.5 km/h 8.7 km/h 97% 0.0 mm 0 W/m2
05:18 8.1 °C 7.7 °C 1015.5 hPa NNW 5.0 km/h 8.7 km/h 97% 0.0 mm 0 W/m2
05:23 8.1 °C 7.7 °C 1015.5 hPa NW 5.0 km/h 8.7 km/h 97% 0.0 mm 0 W/m2
05:40 8.0 °C 7.7 °C 1015.5 hPa NW 5.0 km/h 9.7 km/h 98% 0.0 mm 0 W/m2
05:45 8.0 °C 7.7 °C 1015.5 hPa NNW 6.1 km/h 9.7 km/h 98% 0.0 mm 0 W/m2
05:50 7.9 °C 7.4 °C 1015.5 hPa NNW 5.0 km/h 9.7 km/h 97% 0.0 mm 0 W/m2
05:55 7.9 °C 7.4 °C 1015.5 hPa NW 7.2 km/h 9.7 km/h 97% 0.0 mm 0 W/m2
06:00 8.0 °C 7.7 °C 1015.5 hPa NW 7.2 km/h 11.1 km/h 98% 0.0 mm 0 W/m2
06:05 8.0 °C 7.7 °C 1015.5 hPa NW 7.2 km/h 11.1 km/h 98% 0.0 mm 0 W/m2
06:10 8.0 °C 7.8 °C 1015.5 hPa NW 7.2 km/h 11.1 km/h 99% 0.0 mm 0 W/m2
06:15 7.6 °C 7.2 °C 1015.5 hPa NW 6.1 km/h 11.1 km/h 97% 0.0 mm 0 W/m2
06:20 7.9 °C 7.4 °C 1015.5 hPa WNW 6.1 km/h 11.1 km/h 97% 0.0 mm 0 W/m2
06:25 7.9 °C 7.4 °C 1015.8 hPa NW 7.2 km/h 11.1 km/h 97% 0.0 mm 0 W/m2
06:30 8.0 °C 7.8 °C 1015.8 hPa NW 6.1 km/h 12.2 km/h 99% 0.0 mm 0 W/m2
06:35 7.9 °C 7.4 °C 1016.1 hPa NNW 6.1 km/h 12.2 km/h 97% 0.0 mm 0 W/m2
06:40 8.0 °C 7.7 °C 1016.1 hPa NW 6.1 km/h 12.2 km/h 98% 0.0 mm 0 W/m2
06:45 8.0 °C 7.7 °C 1016.1 hPa NW 5.0 km/h 9.7 km/h 98% 0.0 mm 2 W/m2
06:50 8.0 °C 7.7 °C 1016.1 hPa NW 5.0 km/h 9.7 km/h 98% 0.0 mm 5 W/m2
06:55 8.0 °C 7.7 °C 1016.1 hPa NW 5.0 km/h 9.7 km/h 98% 0.0 mm 8 W/m2
07:00 8.0 °C 7.7 °C 1016.5 hPa NNW 2.6 km/h 9.7 km/h 98% 0.0 mm 11 W/m2
07:05 8.1 °C 7.8 °C 1016.5 hPa NNW 6.1 km/h 9.7 km/h 98% 0.0 mm 19 W/m2
07:10 8.2 °C 7.9 °C 1016.8 hPa NW 3.5 km/h 9.7 km/h 98% 0.0 mm 20 W/m2
07:15 8.2 °C 7.8 °C 1016.8 hPa NW 6.1 km/h 9.7 km/h 97% 0.0 mm 53 W/m2
07:21 8.6 °C 8.2 °C 1016.8 hPa NW 8.7 km/h 11.1 km/h 97% 0.0 mm 64 W/m2
07:26 8.8 °C 8.3 °C 1016.8 hPa NW 5.0 km/h 11.1 km/h 97% 0.0 mm 55 W/m2
07:31 8.8 °C 8.2 °C 1016.8 hPa NNW 6.1 km/h 9.7 km/h 96% 0.0 mm 90 W/m2
07:36 9.1 °C 8.3 °C 1017.2 hPa NW 6.1 km/h 11.1 km/h 95% 0.0 mm 112 W/m2
07:41 9.3 °C 8.4 °C 1017.2 hPa NW 6.1 km/h 11.1 km/h 94% 0.0 mm 42 W/m2
07:46 9.2 °C 8.3 °C 1017.8 hPa Calm   11.1 km/h 94% 0.0 mm 42 W/m2
07:51 9.1 °C 8.1 °C 1018.2 hPa NW 6.1 km/h 9.7 km/h 93% 0.0 mm 34 W/m2
07:56 9.2 °C 8.1 °C 1018.2 hPa NW 5.0 km/h 9.7 km/h 93% 0.0 mm 57 W/m2
08:01 9.3 °C 8.4 °C 1018.5 hPa NW 6.1 km/h 9.7 km/h 94% 0.0 mm 30 W/m2
08:06 9.4 °C 8.5 °C 1018.2 hPa NW 5.0 km/h 9.7 km/h 94% 0.0 mm 33 W/m2
08:11 9.4 °C 8.5 °C 1018.2 hPa NNW 3.5 km/h 9.7 km/h 94% 0.0 mm 66 W/m2
08:16 9.5 °C 8.6 °C 1018.8 hPa NNW 5.0 km/h 9.7 km/h 94% 0.0 mm 22 W/m2
08:21 9.5 °C 8.6 °C 1018.8 hPa NW 3.5 km/h 8.7 km/h 94% 0.0 mm 35 W/m2
08:26 9.6 °C 8.7 °C 1019.2 hPa NW 5.0 km/h 8.7 km/h 94% 0.0 mm 27 W/m2
08:36 9.6 °C 8.7 °C 1019.2 hPa NNW 2.6 km/h 9.7 km/h 94% 0.0 mm 17 W/m2
08:41 9.7 °C 8.8 °C 1019.2 hPa North 1.1 km/h 7.2 km/h 94% 0.0 mm 24 W/m2
08:46 9.9 °C 9.0 °C 1019.2 hPa ESE 6.1 km/h 12.2 km/h 94% 0.0 mm 30 W/m2
08:51 12.0 °C 11.6 °C 1019.5 hPa South 12.2 km/h 30.6 km/h 97% 0.0 mm 44 W/m2
08:56 13.0 °C 12.2 °C 1019.5 hPa South 14.8 km/h 36.7 km/h 95% 0.0 mm 33 W/m2
09:01 13.2 °C 11.8 °C 1019.5 hPa South 18.3 km/h 36.7 km/h 91% 0.0 mm 39 W/m2
09:06 13.2 °C 11.4 °C 1019.5 hPa SSW 19.5 km/h 33.1 km/h 89% 0.0 mm 42 W/m2
09:11 13.2 °C 11.6 °C 1019.9 hPa SSW 19.5 km/h 33.1 km/h 90% 0.0 mm 44 W/m2
09:21 13.1 °C 11.5 °C 1019.9 hPa SW 11.1 km/h 34.3 km/h 90% 0.0 mm 38 W/m2
09:26 13.1 °C 11.8 °C 1020.2 hPa SSW 14.8 km/h 31.7 km/h 92% 0.0 mm 34 W/m2
09:31 13.0 °C 11.7 °C 1020.2 hPa SSW 17.2 km/h 31.7 km/h 92% 0.0 mm 37 W/m2
09:36 13.0 °C 11.9 °C 1020.5 hPa SW 19.5 km/h 31.7 km/h 93% 0.0 mm 34 W/m2
09:46 13.0 °C 12.1 °C 1020.9 hPa SW 11.1 km/h 29.4 km/h 94% 0.0 mm 31 W/m2
09:51 12.9 °C 11.9 °C 1020.9 hPa SW 17.2 km/h 29.4 km/h 94% 0.0 mm 40 W/m2
09:56 12.9 °C 11.9 °C 1021.2 hPa SW 14.8 km/h 29.4 km/h 94% 0.0 mm 34 W/m2
10:01 12.9 °C 11.9 °C 1020.9 hPa SW 19.5 km/h 24.5 km/h 94% 0.0 mm 35 W/m2
10:06 12.9 °C 11.8 °C 1021.2 hPa WSW 24.5 km/h 31.7 km/h 93% 0.0 mm 37 W/m2
10:11 12.9 °C 11.6 °C 1021.2 hPa SW 17.2 km/h 33.1 km/h 92% 0.0 mm 52 W/m2
10:16 12.9 °C 11.6 °C 1021.6 hPa SW 23.3 km/h 33.1 km/h 92% 0.0 mm 27 W/m2
10:21 12.8 °C 11.4 °C 1021.6 hPa SW 19.5 km/h 29.4 km/h 91% 0.0 mm 58 W/m2
10:26 12.8 °C 11.4 °C 1021.6 hPa SW 19.5 km/h 29.4 km/h 91% 0.0 mm 64 W/m2
10:36 12.8 °C 11.1 °C 1021.6 hPa SW 19.5 km/h 33.1 km/h 89% 0.0 mm 90 W/m2
10:41 12.8 °C 11.1 °C 1021.9 hPa SW 21.9 km/h 33.1 km/h 89% 0.0 mm 83 W/m2
10:46 12.9 °C 10.9 °C 1021.9 hPa SSW 19.5 km/h 30.6 km/h 88% 0.0 mm 91 W/m2
10:56 13.1 °C 10.8 °C 1022.2 hPa SW 21.9 km/h 41.7 km/h 86% 0.0 mm 145 W/m2
11:01 13.1 °C 10.4 °C 1022.2 hPa SSW 18.3 km/h 42.8 km/h 84% 0.0 mm 153 W/m2
11:06 13.3 °C 10.7 °C 1022.2 hPa SSW 17.2 km/h 42.8 km/h 84% 0.0 mm 149 W/m2
11:11 13.2 °C 10.6 °C 1022.2 hPa SSW 15.8 km/h 36.7 km/h 84% 0.0 mm 144 W/m2
11:16 13.2 °C 10.4 °C 1022.2 hPa SW 20.9 km/h 36.7 km/h 83% 0.0 mm 154 W/m2
11:21 13.3 °C 10.3 °C 1022.6 hPa SW 21.9 km/h 33.1 km/h 82% 0.0 mm 183 W/m2
11:26 13.3 °C 10.1 °C 1022.6 hPa SW 15.8 km/h 34.3 km/h 81% 0.0 mm 180 W/m2
11:31 13.3 °C 10.1 °C 1022.6 hPa SSW 20.9 km/h 34.3 km/h 81% 0.0 mm 189 W/m2
11:36 13.5 °C 9.9 °C 1022.9 hPa SW 19.5 km/h 34.3 km/h 79% 0.0 mm 180 W/m2
11:41 13.4 °C 9.7 °C 1022.9 hPa SW 18.3 km/h 34.3 km/h 78% 0.0 mm 149 W/m2
11:46 13.4 °C 9.7 °C 1022.9 hPa SW 20.9 km/h 34.3 km/h 78% 0.0 mm 152 W/m2
11:52 13.4 °C 9.7 °C 1022.9 hPa SW 20.9 km/h 34.3 km/h 78% 0.0 mm 166 W/m2
11:57 13.4 °C 9.8 °C 1022.9 hPa SW 20.9 km/h 31.7 km/h 79% 0.0 mm 212 W/m2
12:02 13.4 °C 9.4 °C 1023.2 hPa SSW 14.8 km/h 33.1 km/h 77% 0.0 mm 157 W/m2
12:07 13.5 °C 9.7 °C 1023.2 hPa SSW 19.5 km/h 33.1 km/h 78% 0.0 mm 204 W/m2
12:12 13.5 °C 9.6 °C 1023.2 hPa SW 20.9 km/h 34.3 km/h 77% 0.0 mm 178 W/m2
12:17 13.5 °C 9.3 °C 1023.2 hPa SSW 21.9 km/h 34.3 km/h 76% 0.0 mm 182 W/m2
12:22 13.4 °C 9.1 °C 1023.2 hPa SSW 18.3 km/h 33.1 km/h 75% 0.0 mm 193 W/m2
12:27 13.4 °C 9.1 °C 1023.2 hPa SSW 14.8 km/h 33.1 km/h 75% 0.0 mm 198 W/m2
12:32 13.5 °C 8.9 °C 1023.2 hPa SSW 21.9 km/h 33.1 km/h 74% 0.0 mm 213 W/m2
12:37 13.5 °C 8.8 °C 1023.2 hPa SW 20.9 km/h 33.1 km/h 73% 0.0 mm 262 W/m2
12:42 13.5 °C 8.6 °C 1023.6 hPa SW 19.5 km/h 30.6 km/h 72% 0.0 mm 273 W/m2
12:47 13.7 °C 8.6 °C 1023.2 hPa SSW 18.3 km/h 36.7 km/h 71% 0.0 mm 295 W/m2
12:52 13.8 °C 8.6 °C 1023.6 hPa SSW 18.3 km/h 36.7 km/h 71% 0.0 mm 312 W/m2
12:57 14.0 °C 8.4 °C 1023.2 hPa SSW 23.3 km/h 33.1 km/h 69% 0.0 mm 373 W/m2
13:02 14.0 °C 8.6 °C 1023.2 hPa South 24.5 km/h 33.1 km/h 70% 0.0 mm 344 W/m2
13:07 14.0 °C 8.6 °C 1023.6 hPa South 24.5 km/h 36.7 km/h 70% 0.0 mm 306 W/m2
13:12 13.8 °C 8.6 °C 1023.9 hPa SSW 14.8 km/h 40.4 km/h 71% 0.0 mm 290 W/m2
13:17 14.1 °C 8.9 °C 1023.9 hPa SSW 14.8 km/h 40.4 km/h 71% 0.0 mm 307 W/m2
13:22 14.0 °C 8.4 °C 1023.6 hPa SSW 20.9 km/h 33.1 km/h 69% 0.0 mm 272 W/m2
13:27 14.1 °C 8.5 °C 1023.9 hPa SSW 20.9 km/h 33.1 km/h 69% 0.0 mm 307 W/m2
13:32 14.0 °C 8.8 °C 1023.9 hPa SSW 13.4 km/h 33.1 km/h 71% 0.0 mm 265 W/m2
13:37 14.0 °C 9.1 °C 1023.9 hPa SSW 12.2 km/h 33.1 km/h 72% 0.0 mm 237 W/m2
13:42 14.1 °C 8.9 °C 1023.9 hPa SSW 14.8 km/h 29.4 km/h 71% 0.0 mm 236 W/m2
13:47 14.1 °C 8.7 °C 1023.9 hPa SSW 23.3 km/h 29.4 km/h 70% 0.0 mm 267 W/m2
13:52 14.1 °C 8.7 °C 1023.6 hPa SSW 17.2 km/h 28.0 km/h 70% 0.0 mm 298 W/m2
13:57 14.4 °C 8.8 °C 1023.9 hPa SSW 15.8 km/h 27.0 km/h 69% 0.0 mm 331 W/m2
14:02 14.4 °C 8.3 °C 1023.9 hPa SSW 20.9 km/h 29.4 km/h 67% 0.0 mm 372 W/m2
14:07 14.3 °C 8.5 °C 1023.9 hPa South 19.5 km/h 30.6 km/h 68% 0.0 mm 332 W/m2
14:12 14.5 °C 8.9 °C 1023.9 hPa SSW 15.8 km/h 30.6 km/h 69% 0.0 mm 345 W/m2
14:17 14.4 °C 8.6 °C 1023.6 hPa SSW 13.4 km/h 29.4 km/h 68% 0.0 mm 346 W/m2
14:22 14.6 °C 9.0 °C 1023.9 hPa SSW 17.2 km/h 29.4 km/h 69% 0.0 mm 366 W/m2
14:27 15.0 °C 9.2 °C 1023.6 hPa SSW 12.2 km/h 25.6 km/h 68% 0.0 mm 382 W/m2
14:32 14.7 °C 9.1 °C 1023.9 hPa South 14.8 km/h 27.0 km/h 69% 0.0 mm 362 W/m2
14:37 14.6 °C 9.2 °C 1023.6 hPa South 13.4 km/h 27.0 km/h 70% 0.0 mm 299 W/m2
14:42 14.9 °C 9.7 °C 1023.9 hPa SSW 17.2 km/h 27.0 km/h 71% 0.0 mm 286 W/m2
14:47 14.7 °C 9.1 °C 1023.6 hPa SSW 12.2 km/h 23.3 km/h 69% 0.0 mm 292 W/m2
14:52 14.4 °C 9.0 °C 1023.6 hPa SW 13.4 km/h 23.3 km/h 70% 0.0 mm 290 W/m2
14:57 14.4 °C 8.8 °C 1023.6 hPa SSW 12.2 km/h 23.3 km/h 69% 0.0 mm 239 W/m2
15:02 14.3 °C 8.7 °C 1023.6 hPa SW 9.7 km/h 24.5 km/h 69% 0.0 mm 283 W/m2
15:07 14.3 °C 8.9 °C 1023.6 hPa SW 12.2 km/h 24.5 km/h 70% 0.0 mm 289 W/m2
15:12 14.2 °C 8.6 °C 1023.6 hPa SSW 9.7 km/h 21.9 km/h 69% 0.0 mm 277 W/m2
15:17 14.3 °C 8.7 °C 1023.6 hPa SSW 17.2 km/h 21.9 km/h 69% 0.0 mm 273 W/m2
15:22 14.5 °C 9.5 °C 1023.6 hPa SSW 13.4 km/h 21.9 km/h 72% 0.0 mm 271 W/m2
15:27 14.3 °C 8.9 °C 1023.6 hPa SSW 9.7 km/h 20.9 km/h 70% 0.0 mm 248 W/m2
15:32 14.3 °C 8.9 °C 1023.9 hPa SSW 14.8 km/h 27.0 km/h 70% 0.0 mm 269 W/m2
15:37 14.2 °C 9.0 °C 1023.6 hPa SSW 15.8 km/h 27.0 km/h 71% 0.0 mm 248 W/m2
15:42 14.1 °C 8.9 °C 1023.6 hPa SSW 11.1 km/h 20.9 km/h 71% 0.0 mm 232 W/m2
15:47 14.3 °C 9.1 °C 1023.6 hPa SSW 13.4 km/h 24.5 km/h 71% 0.0 mm 205 W/m2
15:52 14.1 °C 9.3 °C 1023.6 hPa SSW 14.8 km/h 24.5 km/h 73% 0.0 mm 208 W/m2
15:57 13.8 °C 8.6 °C 1023.6 hPa SSW 15.8 km/h 23.3 km/h 71% 0.0 mm 261 W/m2
16:02 14.0 °C 9.1 °C 1023.6 hPa SSW 14.8 km/h 23.3 km/h 72% 0.0 mm 233 W/m2
16:07 14.4 °C 9.2 °C 1023.6 hPa SSW 11.1 km/h 20.9 km/h 71% 0.0 mm 200 W/m2
16:17 13.8 °C 9.4 °C 1023.6 hPa South 11.1 km/h 23.3 km/h 75% 0.0 mm 192 W/m2
16:22 13.8 °C 9.4 °C 1023.6 hPa SSW 9.7 km/h 23.3 km/h 75% 0.0 mm 184 W/m2
16:23 14.1 °C 9.6 °C 1023.6 hPa SSW 15.8 km/h 23.3 km/h 74% 0.0 mm 181 W/m2
16:24 13.8 °C 9.3 °C 1023.6 hPa SSW 14.8 km/h 23.3 km/h 74% 0.0 mm 178 W/m2
16:30 13.8 °C 9.3 °C 1023.6 hPa SSW 12.2 km/h 23.3 km/h 74% 0.0 mm 175 W/m2
16:35 13.8 °C 9.4 °C 1023.6 hPa SSW 14.8 km/h 23.3 km/h 75% 0.0 mm 170 W/m2
16:40 13.6 °C 9.3 °C 1023.6 hPa SSW 13.4 km/h 23.3 km/h 75% 0.0 mm 169 W/m2
16:45 13.6 °C 9.3 °C 1023.6 hPa SSW 12.2 km/h 23.3 km/h 75% 0.0 mm 165 W/m2
16:50 13.6 °C 9.3 °C 1023.6 hPa SSW 13.4 km/h 20.9 km/h 75% 0.0 mm 139 W/m2
16:55 13.2 °C 8.9 °C 1023.6 hPa SSW 13.4 km/h 21.9 km/h 75% 0.0 mm 120 W/m2
17:00 13.4 °C 9.3 °C 1023.6 hPa SSW 15.8 km/h 21.9 km/h 76% 0.0 mm 106 W/m2
17:05 13.2 °C 9.1 °C 1023.6 hPa SSW 8.7 km/h 20.9 km/h 76% 0.0 mm 104 W/m2
17:10 13.2 °C 9.3 °C 1023.6 hPa SSW 8.7 km/h 20.9 km/h 77% 0.0 mm 105 W/m2
17:15 13.3 °C 9.3 °C 1023.6 hPa South 7.2 km/h 20.9 km/h 77% 0.0 mm 98 W/m2
17:20 13.2 °C 9.3 °C 1023.6 hPa South 8.7 km/h 20.9 km/h 77% 0.0 mm 79 W/m2
17:25 13.1 °C 9.2 °C 1023.6 hPa South 8.7 km/h 20.9 km/h 77% 0.0 mm 66 W/m2
17:29 13.1 °C 9.2 °C 1023.6 hPa SSW 6.1 km/h 18.3 km/h 77% 0.0 mm 65 W/m2
17:34 12.9 °C 9.2 °C 1023.2 hPa SSW 9.7 km/h 20.9 km/h 78% 0.0 mm 61 W/m2
17:39 13.3 °C 9.6 °C 1023.6 hPa South 9.7 km/h 21.9 km/h 78% 0.0 mm 68 W/m2
17:44 12.8 °C 8.9 °C 1023.6 hPa South 9.7 km/h 21.9 km/h 77% 0.0 mm 71 W/m2
17:49 12.9 °C 9.2 °C 1023.6 hPa South 12.2 km/h 19.5 km/h 78% 0.0 mm 67 W/m2
17:59 12.8 °C 9.1 °C 1023.6 hPa South 13.4 km/h 19.5 km/h 78% 0.0 mm 54 W/m2
18:04 12.8 °C 9.3 °C 1023.6 hPa South 9.7 km/h 18.3 km/h 79% 0.0 mm 49 W/m2
18:09 12.8 °C 8.9 °C 1023.6 hPa South 7.2 km/h 18.3 km/h 77% 0.0 mm 44 W/m2
18:14 12.8 °C 9.1 °C 1023.6 hPa South 6.1 km/h 18.3 km/h 78% 0.0 mm 40 W/m2
18:19 12.5 °C 8.8 °C 1023.9 hPa South 9.7 km/h 15.8 km/h 78% 0.0 mm 40 W/m2
18:24 12.7 °C 9.2 °C 1023.6 hPa South 8.7 km/h 15.8 km/h 79% 0.0 mm 33 W/m2
18:29 12.7 °C 9.2 °C 1023.6 hPa South 7.2 km/h 17.2 km/h 79% 0.0 mm 27 W/m2
18:39 12.7 °C 9.3 °C 1023.9 hPa South 7.2 km/h 18.3 km/h 80% 0.0 mm 22 W/m2
18:49 12.5 °C 9.3 °C 1023.9 hPa South 8.7 km/h 15.8 km/h 81% 0.0 mm 6 W/m2
18:54 12.5 °C 9.3 °C 1023.9 hPa South 11.1 km/h 15.8 km/h 81% 0.0 mm 4 W/m2
18:59 12.4 °C 9.2 °C 1023.9 hPa South 5.0 km/h 15.8 km/h 81% 0.0 mm 4 W/m2
19:04 12.5 °C 9.5 °C 1023.9 hPa South 6.1 km/h 15.8 km/h 82% 0.0 mm 2 W/m2
19:09 12.4 °C 9.2 °C 1023.9 hPa South 8.7 km/h 14.8 km/h 81% 0.0 mm 0 W/m2
19:14 12.4 °C 9.2 °C 1023.9 hPa South 8.7 km/h 14.8 km/h 81% 0.0 mm 0 W/m2
19:19 12.2 °C 8.8 °C 1023.9 hPa South 8.7 km/h 14.8 km/h 80% 0.0 mm 0 W/m2
19:24 12.4 °C 8.9 °C 1023.9 hPa SSW 3.5 km/h 14.8 km/h 79% 0.0 mm 0 W/m2
19:34 12.4 °C 8.9 °C 1024.3 hPa SSW 9.7 km/h 13.4 km/h 79% 0.0 mm 0 W/m2
19:39 12.2 °C 8.8 °C 1023.9 hPa SSW 1.1 km/h 13.4 km/h 80% 0.0 mm 0 W/m2
19:44 12.4 °C 9.2 °C 1024.3 hPa South 7.2 km/h 13.4 km/h 81% 0.0 mm 0 W/m2
19:49 12.4 °C 9.1 °C 1024.3 hPa South 7.2 km/h 14.8 km/h 80% 0.0 mm 0 W/m2
19:54 12.4 °C 8.9 °C 1024.3 hPa South 7.2 km/h 14.8 km/h 79% 0.0 mm 0 W/m2
19:59 12.0 °C 8.5 °C 1024.3 hPa SSE 6.1 km/h 13.4 km/h 79% 0.0 mm 0 W/m2
20:04 12.4 °C 8.9 °C 1024.3 hPa South 5.0 km/h 12.2 km/h 79% 0.0 mm 0 W/m2
20:09 12.4 °C 8.9 °C 1024.3 hPa SSW 6.1 km/h 12.2 km/h 79% 0.0 mm 0 W/m2
20:14 12.4 °C 8.5 °C 1024.6 hPa SSW 6.1 km/h 14.8 km/h 77% 0.0 mm 0 W/m2
20:19 12.7 °C 8.9 °C 1024.3 hPa SSW 6.1 km/h 14.8 km/h 78% 0.0 mm 0 W/m2
20:36 12.4 °C 8.9 °C 1024.6 hPa South 6.1 km/h 12.2 km/h 79% 0.0 mm 0 W/m2
20:41 12.4 °C 9.1 °C 1024.6 hPa South 6.1 km/h 12.2 km/h 80% 0.0 mm 0 W/m2
20:46 12.4 °C 8.9 °C 1024.6 hPa South 6.1 km/h 9.7 km/h 79% 0.0 mm 0 W/m2
20:51 12.4 °C 8.9 °C 1024.6 hPa SSE 9.7 km/h 12.2 km/h 79% 0.0 mm 0 W/m2
20:56 12.4 °C 9.1 °C 1024.6 hPa South 6.1 km/h 12.2 km/h 80% 0.0 mm 0 W/m2
21:01 12.4 °C 9.2 °C 1024.6 hPa South 1.1 km/h 9.7 km/h 81% 0.0 mm 0 W/m2
21:11 12.1 °C 8.8 °C 1024.6 hPa South 5.0 km/h 9.7 km/h 80% 0.0 mm 0 W/m2
21:16 12.5 °C 9.3 °C 1024.6 hPa South 7.2 km/h 11.1 km/h 81% 0.0 mm 0 W/m2
21:21 12.4 °C 9.1 °C 1024.9 hPa South 5.0 km/h 11.1 km/h 80% 0.0 mm 0 W/m2
21:26 12.4 °C 9.1 °C 1024.6 hPa South 6.1 km/h 11.1 km/h 80% 0.0 mm 0 W/m2
21:31 12.4 °C 8.9 °C 1024.9 hPa South 5.0 km/h 11.1 km/h 79% 0.0 mm 0 W/m2
21:36 12.4 °C 8.7 °C 1024.9 hPa South 6.1 km/h 11.1 km/h 78% 0.0 mm 0 W/m2
21:41 12.4 °C 8.7 °C 1024.9 hPa SSE 3.5 km/h 11.1 km/h 78% 0.0 mm 0 W/m2
21:46 12.4 °C 8.7 °C 1024.9 hPa South 5.0 km/h 11.1 km/h 78% 0.0 mm 0 W/m2
21:51 12.5 °C 8.6 °C 1024.9 hPa South 1.1 km/h 8.7 km/h 77% 0.0 mm 0 W/m2
21:56 12.4 °C 8.3 °C 1024.9 hPa SSE 2.6 km/h 8.7 km/h 76% 0.0 mm 0 W/m2
22:01 12.3 °C 8.2 °C 1024.9 hPa South 1.1 km/h 6.1 km/h 76% 0.0 mm 0 W/m2
22:06 12.3 °C 8.2 °C 1024.9 hPa South 1.1 km/h 5.0 km/h 76% 0.0 mm 0 W/m2
22:16 12.2 °C 7.9 °C 1024.9 hPa SSE 1.1 km/h 6.1 km/h 75% 0.0 mm 0 W/m2
22:21 12.2 °C 7.9 °C 1024.9 hPa SSE 1.1 km/h 5.0 km/h 75% 0.0 mm 0 W/m2
22:26 12.2 °C 8.1 °C 1025.3 hPa Calm   3.5 km/h 76% 0.0 mm 0 W/m2
22:31 12.5 °C 8.4 °C 1024.9 hPa Calm   3.5 km/h 76% 0.0 mm 0 W/m2
22:36 12.1 °C 8.0 °C 1024.9 hPa Calm   2.6 km/h 76% 0.0 mm 0 W/m2
22:41 12.1 °C 8.2 °C 1024.9 hPa Calm   2.6 km/h 77% 0.0 mm 0 W/m2
22:46 12.2 °C 8.5 °C 1024.9 hPa NNW 2.6 km/h 6.1 km/h 78% 0.0 mm 0 W/m2
22:51 12.2 °C 9.1 °C 1025.3 hPa NNW 2.6 km/h 6.1 km/h 81% 0.0 mm 0 W/m2
22:56 11.8 °C 9.2 °C 1024.9 hPa Calm   5.0 km/h 84% 0.0 mm 0 W/m2
23:01 11.7 °C 9.1 °C 1024.9 hPa North 1.1 km/h 3.5 km/h 84% 0.0 mm 0 W/m2
23:06 11.6 °C 9.2 °C 1025.3 hPa North 1.1 km/h 5.0 km/h 85% 0.0 mm 0 W/m2
23:11 11.5 °C 9.2 °C 1025.3 hPa Calm   5.0 km/h 86% 0.0 mm 0 W/m2
23:16 11.5 °C 9.4 °C 1024.9 hPa North 3.5 km/h 6.1 km/h 87% 0.0 mm 0 W/m2
23:21 11.4 °C 9.7 °C 1024.9 hPa NNW 2.6 km/h 6.1 km/h 89% 0.0 mm 0 W/m2
23:26 11.4 °C 9.8 °C 1025.3 hPa NNW 3.5 km/h 7.2 km/h 90% 0.0 mm 0 W/m2
23:31 11.5 °C 9.9 °C 1025.3 hPa North 5.0 km/h 7.2 km/h 90% 0.0 mm 0 W/m2
23:36 11.2 °C 9.8 °C 1024.9 hPa NNW 3.5 km/h 7.2 km/h 91% 0.0 mm 0 W/m2
23:41 11.2 °C 9.8 °C 1024.9 hPa NNW 3.5 km/h 7.2 km/h 91% 0.0 mm 0 W/m2
23:46 11.2 °C 9.9 °C 1024.9 hPa Calm   7.2 km/h 92% 0.0 mm 0 W/m2
23:56 11.1 °C 9.8 °C 1024.9 hPa North 1.1 km/h 3.5 km/h 92% 0.0 mm 0 W/m2
Northern Hawkes Bay. New Zealand Historic Data
Compliments of Weather Underground - 2.25 mb